Time;durP1;ratioP1;P1;durP2;ratioP2;P2;SDS_P1;SDS_P2;PMS_P1;PMS_P2;Temp;Humidity;BMP_temperature;BMP_pressure;BME280_temperature;BME280_humidity;BME280_pressure;Samples;Min_cycle;Max_cycle;Signal;HPM_P1;HPM_P2
2022/12/27 00:00:00;;;;;;;5.13;0.95;;;3.20;99.90;;;2.33;100.00;98553.34;4998051;28;20140;-70
2022/12/27 00:02:27;;;;;;;7.18;1.30;;;3.20;99.90;;;2.32;100.00;98557.63;4995247;28;20108;-69
2022/12/27 00:04:54;;;;;;;6.45;1.08;;;3.20;99.90;;;2.32;100.00;98552.50;4994348;28;20175;-69
2022/12/27 00:07:21;;;;;;;3.58;1.02;;;3.20;99.90;;;2.27;100.00;98556.75;4993910;28;20073;-69
2022/12/27 00:09:48;;;;;;;8.23;1.20;;;3.10;99.90;;;2.18;100.00;98561.81;4994164;28;20715;-69
2022/12/27 00:12:15;;;;;;;4.05;1.40;;;3.10;99.90;;;2.20;100.00;98571.22;4998661;28;20077;-69
2022/12/27 00:14:41;;;;;;;5.80;1.20;;;3.10;99.90;;;2.24;100.00;98572.13;4998724;28;20524;-69
2022/12/27 00:17:08;;;;;;;8.20;1.40;;;3.00;99.90;;;2.05;100.00;98582.22;4997377;28;20380;-69
2022/12/27 00:19:35;;;;;;;6.40;1.20;;;3.00;99.90;;;2.14;100.00;98573.72;4999757;28;20048;-69
2022/12/27 00:22:04;;;;;;;8.18;1.73;;;2.90;99.90;;;2.09;100.00;98577.97;4999452;28;20132;-69
2022/12/27 00:24:31;;;;;;;7.68;1.58;;;2.90;99.90;;;2.03;100.00;98578.78;4998651;28;20815;-69
2022/12/27 00:26:58;;;;;;;6.47;1.20;;;2.90;99.90;;;2.04;100.00;98574.53;4999143;28;20096;-69
2022/12/27 00:29:25;;;;;;;7.05;1.60;;;2.90;99.90;;;2.07;100.00;98592.47;4999253;28;20050;-69
2022/12/27 00:31:52;;;;;;;6.18;1.80;;;2.80;99.90;;;1.92;100.00;98600.91;5000498;28;20278;-69
2022/12/27 00:34:19;;;;;;;10.88;1.63;;;2.90;99.90;;;1.96;100.00;98601.75;4999612;28;20049;-70
2022/12/27 00:36:45;;;;;;;4.43;1.13;;;2.80;99.90;;;1.99;100.00;98607.78;4999006;28;20487;-70
2022/12/27 00:39:13;;;;;;;7.70;1.17;;;2.80;99.90;;;2.02;100.00;98612.06;4996179;28;20046;-69
2022/12/27 00:41:40;;;;;;;4.55;1.13;;;2.80;99.90;;;1.94;100.00;98606.91;4997650;28;20514;-70
2022/12/27 00:44:06;;;;;;;4.85;1.15;;;2.80;99.90;;;1.95;100.00;98612.88;4998395;28;20046;-69
2022/12/27 00:46:33;;;;;;;5.45;1.38;;;2.70;99.90;;;1.93;100.00;98617.97;5002420;28;20056;-70
2022/12/27 00:49:00;;;;;;;7.47;1.15;;;2.70;99.90;;;1.95;100.00;98623.94;4999698;28;20061;-69
2022/12/27 00:51:27;;;;;;;7.15;1.25;;;2.70;99.90;;;1.91;100.00;98632.44;4997647;28;20082;-69
2022/12/27 00:53:55;;;;;;;4.35;1.10;;;2.80;99.90;;;1.97;100.00;98636.78;4997862;28;20622;-69
2022/12/27 00:56:27;;;;;;;9.25;1.10;;;2.70;99.90;;;1.95;100.00;98635.91;5000478;28;20491;-69
2022/12/27 00:58:57;;;;;;;8.10;1.42;;;2.70;99.90;;;1.92;100.00;98638.44;5000727;28;20056;-69
2022/12/27 01:01:27;;;;;;;11.13;1.35;;;2.70;99.90;;;1.88;100.00;98643.53;4999431;28;20050;-70
2022/12/27 01:03:56;;;;;;;5.00;1.15;;;2.70;99.90;;;1.89;100.00;98639.25;4997328;28;20042;-70
2022/12/27 01:06:27;;;;;;;8.50;1.90;;;2.70;99.90;;;1.88;100.00;98655.47;5000377;28;20046;-70
2022/12/27 01:08:56;;;;;;;6.20;1.15;;;2.70;99.90;;;1.88;100.00;98665.72;4998950;28;20522;-69
2022/12/27 01:11:23;;;;;;;9.55;1.40;;;2.70;99.90;;;1.79;100.00;98666.47;4999851;28;20074;-69
2022/12/27 01:13:50;;;;;;;7.95;1.48;;;2.70;99.90;;;1.89;100.00;98672.53;5000335;28;20168;-69
2022/12/27 01:16:21;;;;;;;6.05;1.20;;;2.70;99.90;;;1.94;100.00;98685.38;4999568;28;20053;-69
2022/12/27 01:18:49;;;;;;;8.27;1.90;;;2.70;99.90;;;1.89;100.00;98672.53;5003254;28;20065;-69
2022/12/27 01:21:19;;;;;;;6.88;1.25;;;2.70;99.90;;;1.89;100.00;98682.78;5001231;28;20554;-70
2022/12/27 01:23:48;;;;;;;12.52;1.45;;;2.70;99.90;;;1.85;100.00;98689.59;5000413;28;20065;-70
2022/12/27 01:26:21;;;;;;;5.15;1.00;;;2.70;99.90;;;1.98;100.00;98694.81;5004014;28;20050;-69
2022/12/27 01:28:48;;;;;;;;;;;2.80;99.90;;;1.98;100.00;98700.78;5001338;28;20732;-69
2022/12/27 01:31:26;;;;;;;7.90;1.25;;;2.80;99.90;;;1.96;100.00;98710.19;5000867;28;19925;-69
2022/12/27 01:33:59;;;;;;;5.53;1.30;;;2.90;99.90;;;2.01;100.00;98713.66;5003840;28;20069;-69
2022/12/27 01:36:28;;;;;;;10.45;2.10;;;2.80;99.90;;;1.95;100.00;98716.13;5001898;28;20042;-69
2022/12/27 01:38:59;;;;;;;14.82;1.52;;;2.80;99.90;;;1.93;100.00;98715.25;5004436;28;20046;-69
2022/12/27 01:47:22;;;;;;;8.60;1.17;;;2.70;99.90;;;1.90;100.00;98727.19;4999349;28;20231;-69
2022/12/27 01:50:07;;;;;;;7.97;1.40;;;2.70;99.90;;;1.91;100.00;98731.44;4996957;28;20066;-69
2022/12/27 01:52:57;;;;;;;12.15;1.98;;;2.70;99.90;;;1.87;100.00;98740.78;4997553;28;20394;-69
2022/12/27 01:55:24;;;;;;;5.07;1.60;;;2.80;99.90;;;1.87;100.00;98740.78;4997445;28;20045;-69
2022/12/27 01:57:55;;;;;;;15.57;2.70;;;2.80;99.90;;;1.73;100.00;98738.06;4997482;28;20046;-69
2022/12/27 02:00:22;;;;;;;10.65;1.98;;;2.80;99.90;;;1.84;100.00;98738.19;4997425;28;20666;-70
2022/12/27 02:02:50;;;;;;;9.95;1.75;;;2.80;99.90;;;1.86;100.00;98747.63;4999264;28;20049;-70
2022/12/27 02:05:22;;;;;;;8.02;1.40;;;2.80;99.90;;;1.76;100.00;98745.81;5001939;28;20089;-70
2022/12/27 02:08:22;;;;;;;13.07;1.75;;;2.80;99.90;;;1.88;100.00;98748.50;4993728;28;20047;-70
2022/12/27 02:10:50;;;;;;;8.35;1.45;;;2.80;99.90;;;1.82;100.00;98752.69;4997062;28;20428;-70
2022/12/27 02:13:21;;;;;;;9.07;1.88;;;2.80;99.90;;;1.87;100.00;98756.16;4995780;28;20056;-69
2022/12/27 02:15:48;;;;;;;6.43;1.50;;;2.90;99.90;;;1.91;100.00;98757.06;4996419;28;20050;-70
2022/12/27 02:18:15;;;;;;;8.15;1.50;;;2.80;99.90;;;1.96;100.00;98760.50;4996713;28;20054;-70
2022/12/27 02:21:26;;;;;;;6.90;1.52;;;2.80;99.90;;;2.03;100.00;98755.50;5005409;28;20057;-69
2022/12/27 02:24:26;;;;;;;7.32;1.63;;;2.80;99.90;;;2.01;100.00;98757.19;4997349;28;20104;-70
2022/12/27 02:27:01;;;;;;;8.73;2.00;;;2.80;99.90;;;1.95;100.00;98764.78;5014381;28;20060;-69
2022/12/27 02:29:59;;;;;;;5.85;1.10;;;2.80;99.90;;;1.91;100.00;98767.28;4996514;28;20046;-70
2022/12/27 02:32:47;;;;;;;9.68;1.50;;;2.80;99.90;;;1.95;100.00;98762.22;4994122;28;20121;-69
2022/12/27 02:35:35;;;;;;;7.97;1.45;;;2.80;99.90;;;1.98;100.00;98758.84;4985999;28;20144;-69
2022/12/27 02:38:12;;;;;;;7.72;1.30;;;2.80;99.90;;;1.95;100.00;98759.66;4996844;28;20060;-69
2022/12/27 02:53:08;;;;;;;7.18;1.48;;;3.00;99.90;;;2.15;100.00;98766.72;4994157;28;20085;-69
2022/12/27 02:59:12;;;;;;;6.68;1.40;;;3.20;99.90;;;2.30;100.00;98780.53;4996591;28;20483;-69
2022/12/27 03:09:00;;;;;;;5.15;1.40;;;3.40;99.90;;;2.42;100.00;98776.38;4995674;28;20058;-69
2022/12/27 03:17:42;;;;;;;5.32;1.55;;;3.50;99.90;;;2.56;100.00;98763.66;4990694;28;20499;-69
2022/12/27 03:25:50;;;;;;;4.85;1.08;;;3.50;99.90;;;2.39;100.00;98763.50;4997201;28;20050;-69
2022/12/27 03:40:14;;;;;;;7.63;1.70;;;3.20;99.90;;;2.24;100.00;98754.00;4990379;28;20069;-69
2022/12/27 03:49:09;;;;;;;9.35;1.30;;;3.00;99.90;;;2.14;100.00;98747.03;5000019;28;20473;-69
2022/12/27 03:51:45;;;;;;;10.32;1.98;;;3.00;99.90;;;2.13;100.00;98747.91;4998300;28;20050;-69
2022/12/27 03:54:25;;;;;;;10.85;1.85;;;2.90;99.90;;;2.11;100.00;98747.88;4996526;28;20472;-69
2022/12/27 03:56:59;;;;;;;10.38;2.63;;;2.90;99.90;;;2.05;100.00;98755.50;4998277;28;20149;-69
2022/12/27 03:59:27;;;;;;;10.15;1.63;;;2.90;99.90;;;2.05;100.00;98748.69;4994854;28;20057;-69
2022/12/27 04:01:55;;;;;;;8.98;1.67;;;2.90;99.90;;;2.03;100.00;98755.50;4996261;28;20125;-69
2022/12/27 04:04:22;;;;;;;9.02;1.98;;;2.80;99.90;;;2.05;100.00;98761.50;4992666;28;20262;-69
2022/12/27 04:06:49;;;;;;;4.82;1.42;;;2.80;99.90;;;1.95;100.00;98761.38;4996033;28;20057;-69
2022/12/27 04:36:52;;;;;;;9.77;1.80;;;2.60;99.90;;;1.74;100.00;98773.09;4996061;28;20481;-69
2022/12/27 04:39:19;;;;;;;8.82;1.92;;;2.50;99.90;;;1.68;100.00;98771.28;4994105;28;20089;-69
2022/12/27 04:56:04;;;;;;;12.27;2.03;;;2.40;99.90;;;1.56;100.00;98762.63;4996051;28;20200;-69
2022/12/27 04:58:31;;;;;;;8.00;2.28;;;2.40;99.90;;;1.53;100.00;98760.00;4995983;28;20069;-69
2022/12/27 05:03:51;;;;;;;6.57;1.70;;;2.30;99.90;;;1.50;100.00;98758.28;4999882;28;20046;-69
2022/12/27 05:06:18;;;;;;;10.93;2.70;;;2.30;99.90;;;1.51;100.00;98759.16;4998140;28;20050;-69
2022/12/27 05:14:17;;;;;;;10.48;3.17;;;2.20;99.90;;;1.32;100.00;98771.69;4999947;28;20061;-69
2022/12/27 05:16:44;;;;;;;9.77;2.50;;;2.20;99.90;;;1.43;100.00;98777.81;4999986;28;20145;-69
2022/12/27 05:19:13;;;;;;;11.95;3.28;;;2.30;99.90;;;1.41;100.00;98776.06;4998860;28;20046;-69
2022/12/27 05:25:33;;;;;;;7.45;2.80;;;2.30;99.90;;;1.42;100.00;98775.25;4997446;28;20504;-69
2022/12/27 05:27:17;;;;;;;14.20;4.22;;;2.20;99.90;;;1.46;100.00;98775.31;4999339;28;20069;-69
2022/12/27 05:29:45;;;;;;;10.30;3.67;;;2.20;99.90;;;1.39;100.00;98773.50;4997204;28;20592;-69
2022/12/27 05:32:12;;;;;;;13.95;4.18;;;2.30;99.90;;;1.37;100.00;98789.66;4995079;28;20054;-69
2022/12/27 05:34:40;;;;;;;11.32;4.25;;;2.30;99.90;;;1.34;100.00;98793.03;5000425;28;20165;-69
2022/12/27 05:37:07;;;;;;;17.40;4.57;;;2.40;99.90;;;1.44;100.00;98779.53;4998936;28;20073;-69
2022/12/27 05:39:34;;;;;;;11.05;4.68;;;2.40;99.90;;;1.38;100.00;98784.56;5000614;28;20121;-69
2022/12/27 05:42:02;;;;;;;16.80;5.03;;;2.40;99.90;;;1.31;100.00;98779.38;5000911;28;20137;-69
2022/12/27 05:44:28;;;;;;;18.15;6.35;;;2.40;99.90;;;1.32;100.00;98788.75;4995493;28;20054;-69
2022/12/27 05:46:55;;;;;;;17.13;6.07;;;2.50;99.90;;;1.37;100.00;98776.88;5001633;28;20075;-69
2022/12/27 05:49:22;;;;;;;18.85;7.28;;;2.50;99.90;;;1.42;100.00;98783.78;5003171;28;20256;-69
2022/12/27 05:51:49;;;;;;;14.75;6.30;;;2.50;99.90;;;1.53;100.00;98780.47;5001854;28;20149;-69
2022/12/27 05:54:16;;;;;;;13.38;6.60;;;2.50;99.90;;;1.39;100.00;98788.88;4995238;28;20057;-69
2022/12/27 05:56:43;;;;;;;18.90;7.03;;;2.50;99.90;;;1.35;100.00;98794.78;4999335;28;20066;-69
2022/12/27 05:59:10;;;;;;;20.38;8.25;;;2.60;99.90;;;1.39;100.00;98793.09;4995985;28;20174;-69
2022/12/27 06:01:37;;;;;;;15.68;7.03;;;2.60;99.90;;;1.49;100.00;98794.94;5000395;28;20073;-69
2022/12/27 06:04:04;;;;;;;21.27;6.95;;;2.60;99.90;;;1.54;100.00;98789.91;5006911;28;20057;-69
2022/12/27 06:06:33;;;;;;;22.70;8.60;;;2.60;99.90;;;1.42;100.00;98794.00;4998121;28;20045;-69
2022/12/27 06:09:00;;;;;;;20.02;8.70;;;2.60;99.90;;;1.33;100.00;98798.16;4993866;28;20061;-69
2022/12/27 06:11:26;;;;;;;18.27;8.63;;;2.60;99.90;;;1.44;100.00;98800.00;4996938;28;20480;-69
2022/12/27 06:13:53;;;;;;;26.75;10.50;;;2.60;99.90;;;1.29;100.00;98797.25;5001327;28;20065;-69
2022/12/27 06:16:21;;;;;;;27.58;9.27;;;2.60;99.90;;;1.38;100.00;98786.28;4997658;28;20345;-69
2022/12/27 06:18:48;;;;;;;17.65;9.82;;;2.50;99.90;;;1.30;100.00;98793.84;4996963;28;20690;-69
2022/12/27 06:21:20;;;;;;;17.02;8.95;;;2.50;99.90;;;1.47;100.00;98791.50;4997073;28;20042;-69
2022/12/27 06:23:48;;;;;;;24.75;11.02;;;2.50;99.90;;;1.40;100.00;98794.84;5006940;28;20069;-69
2022/12/27 06:26:25;;;;;;;24.75;11.07;;;2.40;99.90;;;1.28;100.00;98797.19;4997787;28;20149;-69
2022/12/27 06:28:55;;;;;;;24.73;10.80;;;2.50;99.90;;;1.33;100.00;98795.59;5000618;28;20050;-69
2022/12/27 06:31:24;;;;;;;26.05;11.27;;;2.40;99.90;;;1.46;100.00;98800.03;5000545;28;20090;-69
2022/12/27 06:33:52;;;;;;;19.38;9.02;;;2.40;99.90;;;1.27;100.00;98821.94;4995771;28;20100;-69
2022/12/27 06:36:23;;;;;;;28.77;11.82;;;2.40;99.90;;;1.16;100.00;98814.09;4996160;28;20048;-69
2022/12/27 06:38:50;;;;;;;25.50;11.95;;;2.50;99.90;;;1.12;100.00;98827.69;4993499;28;20062;-69
2022/12/27 06:41:18;;;;;;;33.90;13.07;;;2.50;99.90;;;1.17;100.00;98813.28;5000605;28;20412;-69
2022/12/27 06:43:46;;;;;;;26.00;11.40;;;2.50;99.90;;;1.38;100.00;98809.31;4998034;28;20050;-69
2022/12/27 06:46:16;;;;;;;22.67;10.43;;;2.50;99.90;;;1.39;100.00;98805.88;4995576;28;20137;-69
2022/12/27 06:48:46;;;;;;;24.45;11.07;;;2.40;99.90;;;1.29;100.00;98798.94;4999036;28;20133;-69
2022/12/27 06:51:16;;;;;;;26.58;12.57;;;2.50;99.90;;;1.25;100.00;98788.69;4997228;28;20112;-69
2022/12/27 06:53:43;;;;;;;20.00;11.77;;;2.50;99.90;;;1.38;100.00;98793.94;5000224;28;20220;-69
2022/12/27 06:56:15;;;;;;;25.02;13.07;;;2.50;99.90;;;1.27;100.00;98806.59;4997962;28;20834;-69
2022/12/27 06:58:42;;;;;;;25.13;11.33;;;2.50;99.90;;;1.40;100.00;98815.31;4999155;28;20141;-69
2022/12/27 07:01:11;;;;;;;20.42;10.45;;;2.40;99.90;;;1.40;100.00;98798.25;4996934;28;20042;-69
2022/12/27 07:03:39;;;;;;;25.73;12.25;;;2.40;99.90;;;1.40;100.00;98805.06;4995003;28;20074;-69
2022/12/27 07:06:10;;;;;;;22.55;11.48;;;2.50;99.90;;;1.51;100.00;98802.66;4999493;28;20522;-68
2022/12/27 07:08:37;;;;;;;21.38;10.90;;;2.50;99.90;;;1.39;100.00;98804.22;4996495;28;20129;-68
2022/12/27 07:11:10;;;;;;;22.60;12.63;;;2.50;99.90;;;1.24;100.00;98809.09;5000597;28;20579;-71
2022/12/27 07:13:43;;;;;;;;;;;2.50;99.90;;;1.16;100.00;98805.56;4997622;28;20057;-69
2022/12/27 07:16:14;;;;;;;27.05;12.23;;;2.60;99.90;;;1.34;100.00;98807.53;5000062;28;19971;-69
2022/12/27 07:18:42;;;;;;;24.60;11.30;;;2.50;99.90;;;1.30;100.00;98811.75;5004360;28;20046;-69
2022/12/27 07:21:14;;;;;;;27.67;13.70;;;2.60;99.90;;;1.27;100.00;98832.16;5000005;28;20385;-69
2022/12/27 07:23:41;;;;;;;23.55;13.05;;;2.60;99.90;;;1.27;100.00;98833.88;5002411;28;20313;-69
2022/12/27 07:26:21;;;;;;;32.05;14.32;;;2.60;99.90;;;1.29;100.00;98834.75;5000389;28;20054;-69
2022/12/27 07:28:51;;;;;;;20.48;11.38;;;2.70;99.90;;;1.35;100.00;98839.97;4998498;28;20133;-69
2022/12/27 07:31:22;;;;;;;20.15;10.45;;;2.60;99.90;;;1.41;100.00;98842.59;5001648;28;20060;-69
2022/12/27 07:33:49;;;;;;;27.50;14.18;;;2.60;99.90;;;1.30;100.00;98841.56;4997896;28;20507;-69
2022/12/27 07:36:20;;;;;;;27.98;13.50;;;2.70;99.90;;;1.33;100.00;98839.94;4994073;28;20046;-69
2022/12/27 07:38:47;;;;;;;25.90;12.70;;;2.70;99.90;;;1.36;100.00;98839.13;5004666;28;20156;-69
2022/12/27 07:41:15;;;;;;;18.63;10.70;;;2.70;99.90;;;1.63;100.00;98836.94;4991016;28;20140;-68
2022/12/27 07:43:43;;;;;;;21.85;11.65;;;2.70;99.90;;;1.53;100.00;98834.22;4996388;28;20054;-68
2022/12/27 07:46:14;;;;;;;29.63;13.23;;;2.70;99.90;;;1.45;100.00;98842.66;5000044;28;20046;-68
2022/12/27 07:48:42;;;;;;;22.20;13.15;;;2.70;99.90;;;1.44;100.00;98843.50;4994996;28;20048;-69
2022/12/27 07:51:10;;;;;;;19.23;10.27;;;2.80;99.90;;;1.68;100.00;98845.53;4997927;28;20046;-69
2022/12/27 07:53:37;;;;;;;19.17;9.38;;;2.70;99.90;;;1.79;100.00;98848.22;5000011;28;20134;-69
2022/12/27 07:56:13;;;;;;;26.73;11.10;;;2.80;99.90;;;1.66;100.00;98854.88;4996218;28;20492;-69
2022/12/27 07:58:48;;;;;;;17.27;8.88;;;2.80;99.90;;;1.85;100.00;98850.88;5003739;28;20065;-69
2022/12/27 08:01:17;;;;;;;22.75;8.43;;;;;;;1.77;100.00;98856.72;4994250;28;20492;-68
2022/12/27 08:03:44;;;;;;;28.02;10.52;;;2.90;99.90;;;1.68;100.00;98862.59;4997344;28;20157;-69
2022/12/27 08:06:30;;;;;;;23.88;9.93;;;3.00;99.90;;;1.61;100.00;98858.22;4999673;28;20477;-69
2022/12/27 08:09:01;;;;;;;16.55;9.15;;;3.00;99.90;;;1.83;100.00;98864.50;5002537;28;20049;-68
2022/12/27 08:11:28;;;;;;;21.77;9.50;;;3.00;99.90;;;1.56;100.00;98863.28;4996510;28;20060;-68
2022/12/27 08:13:56;;;;;;;21.85;9.02;;;3.10;99.90;;;1.81;100.00;98868.75;4993289;28;20047;-69
2022/12/27 08:16:25;;;;;;;16.42;8.30;;;3.00;99.90;;;1.73;100.00;98860.94;4995846;28;20149;-68
2022/12/27 08:18:52;;;;;;;19.50;7.60;;;3.00;99.90;;;1.77;100.00;98857.59;4992417;28;20042;-68
2022/12/27 08:21:20;;;;;;;24.95;8.38;;;3.00;99.90;;;1.89;100.00;98862.00;4998839;28;20412;-68
2022/12/27 08:23:46;;;;;;;25.20;9.25;;;3.00;99.90;;;1.84;100.00;98867.06;4998390;28;20711;-68
2022/12/27 08:26:14;;;;;;;20.15;9.20;;;3.10;99.90;;;1.92;100.00;98861.22;4997539;28;20476;-68
2022/12/27 08:28:41;;;;;;;21.25;9.13;;;3.10;99.90;;;1.84;100.00;98866.22;4995750;28;20050;-68
2022/12/27 08:31:10;;;;;;;18.52;7.38;;;3.20;99.90;;;1.93;100.00;98863.75;4995699;28;20144;-68
2022/12/27 08:33:40;;;;;;;14.43;6.90;;;3.20;99.90;;;2.08;100.00;98860.53;4991918;28;20428;-68
2022/12/27 08:36:10;;;;;;;16.30;7.93;;;3.20;99.90;;;2.12;100.00;98869.09;4995068;28;20133;-68
2022/12/27 08:38:57;;;;;;;17.98;7.43;;;3.30;99.90;;;2.05;100.00;98865.63;4997906;28;20054;-68
2022/12/27 08:41:24;;;;;;;12.50;6.95;;;;;;;2.24;100.00;98861.59;4995294;28;20051;-69
2022/12/27 08:43:51;;;;;;;20.40;7.68;;;3.30;99.90;;;2.01;100.00;98863.88;4991344;28;20564;-69
2022/12/27 08:46:18;;;;;;;18.27;6.72;;;3.40;99.90;;;2.02;100.00;98857.91;4993168;28;20081;-68
2022/12/27 08:48:47;;;;;;;15.23;5.63;;;3.40;99.90;;;2.11;100.00;98865.69;4992315;28;20179;-68
2022/12/27 08:51:15;;;;;;;13.40;5.90;;;3.40;99.90;;;2.01;100.00;98866.44;4996373;28;20071;-69
2022/12/27 08:53:56;;;;;;;21.75;5.43;;;3.40;99.90;;;2.03;100.00;98874.97;4995726;28;20454;-69
2022/12/27 08:56:24;;;;;;;20.70;5.80;;;3.50;99.90;;;2.15;100.00;98880.25;4998895;28;20467;-69
2022/12/27 08:58:50;;;;;;;17.92;5.88;;;3.40;99.90;;;2.08;100.00;98881.88;4997967;28;20042;-69
2022/12/27 09:01:18;;;;;;;12.05;4.45;;;3.50;99.90;;;2.15;100.00;98881.97;4995079;28;20084;-69
2022/12/27 09:03:45;;;;;;;9.52;4.70;;;3.50;99.90;;;2.37;100.00;98885.63;4995919;28;20544;-69
2022/12/27 09:06:17;;;;;;;15.50;5.13;;;3.50;99.90;;;2.20;100.00;98886.28;4996345;28;20113;-69
2022/12/27 09:08:46;;;;;;;12.38;4.85;;;3.50;99.90;;;2.36;100.00;98876.22;4994160;28;20519;-69
2022/12/27 09:11:29;;;;;;;12.20;4.68;;;3.50;99.90;;;2.28;100.00;98878.69;4997420;28;20058;-69
2022/12/27 09:14:03;;;;;;;15.02;5.15;;;3.50;99.90;;;2.33;100.00;98879.63;4996394;28;20060;-69
2022/12/27 09:16:32;;;;;;;11.82;5.38;;;3.50;99.90;;;2.34;100.00;98889.00;5007293;28;20361;-69
2022/12/27 09:19:00;;;;;;;15.70;4.68;;;;;;;2.22;100.00;98876.94;4994309;28;20042;-69
2022/12/27 09:21:30;;;;;;;10.18;5.63;;;3.70;99.90;;;2.40;100.00;98876.28;4995248;28;20167;-69
2022/12/27 09:23:58;;;;;;;14.75;6.13;;;3.80;99.90;;;2.45;100.00;98868.63;5006898;28;20045;-69
2022/12/27 09:26:29;;;;;;;20.58;6.18;;;3.70;99.90;;;2.52;100.00;98875.53;4994044;28;20047;-69
2022/12/27 09:28:57;;;;;;;11.38;4.43;;;3.70;99.90;;;2.63;100.00;98873.94;4996009;28;20076;-69
2022/12/27 09:31:26;;;;;;;15.65;4.53;;;3.80;99.90;;;2.49;100.00;98878.09;4993695;28;20069;-69
2022/12/27 09:33:53;;;;;;;15.25;3.83;;;3.80;99.90;;;2.54;100.00;98884.13;4993541;28;20101;-69
2022/12/27 09:36:25;;;;;;;7.45;3.85;;;3.90;99.90;;;2.58;100.00;98879.84;4997280;28;20823;-69
2022/12/27 09:38:53;;;;;;;11.15;3.90;;;4.00;99.90;;;2.63;100.00;98875.66;4992077;28;20062;-69
2022/12/27 09:41:46;;;;;;;16.70;4.88;;;4.00;99.90;;;2.62;100.00;98877.38;4997346;28;20126;-69
2022/12/27 09:44:51;;;;;;;16.05;5.00;;;4.10;99.90;;;2.54;100.00;98871.28;4995686;28;20042;-68
2022/12/27 09:47:50;;;;;;;13.98;3.83;;;4.10;99.90;;;2.79;100.00;98876.66;4997792;28;20081;-69
2022/12/27 09:50:30;;;;;;;11.45;3.50;;;4.20;99.90;;;2.87;100.00;98875.91;4997212;28;20509;-69
2022/12/27 09:53:40;;;;;;;14.30;3.95;;;4.10;99.90;;;2.73;100.00;98874.91;4997759;28;20065;-69
2022/12/27 09:56:12;;;;;;;9.88;3.97;;;4.10;99.90;;;2.89;100.00;98878.47;4994731;28;20136;-68
2022/12/27 09:58:50;;;;;;;15.63;3.90;;;4.10;99.90;;;2.94;100.00;98879.34;5012850;28;20124;-69
2022/12/27 10:01:35;;;;;;;13.75;4.55;;;4.10;99.90;;;3.02;100.00;98871.75;4994114;28;20145;-69
2022/12/27 10:09:07;;;;;;;23.73;10.43;;;4.30;99.90;;;3.13;100.00;98865.84;4998954;28;20602;-68
2022/12/27 10:12:03;;;;;;;27.95;12.07;;;4.30;99.90;;;2.96;100.00;98864.00;4995726;28;20464;-69
2022/12/27 10:15:26;;;;;;;24.08;11.43;;;4.40;99.90;;;3.08;100.00;98859.84;5009545;28;20407;-69
2022/12/27 10:18:15;;;;;;;10.05;3.97;;;4.50;99.90;;;3.12;100.00;98858.13;4997015;28;20057;-69
2022/12/27 10:21:14;;;;;;;9.70;3.35;;;4.50;99.90;;;3.26;100.00;98855.66;5001377;28;20065;-69
2022/12/27 10:23:51;;;;;;;14.75;4.18;;;4.60;99.90;;;3.13;100.00;98855.59;4997463;28;20049;-69
2022/12/27 10:26:19;;;;;;;17.40;4.15;;;4.60;99.90;;;3.21;100.00;98853.06;5004790;28;20807;-69
2022/12/27 10:28:59;;;;;;;12.68;3.50;;;4.70;99.90;;;3.37;100.00;98856.59;4999681;28;20134;-69
2022/12/27 10:31:30;;;;;;;12.80;4.20;;;4.60;99.90;;;3.38;100.00;98842.94;4996518;28;20057;-69
2022/12/27 10:33:59;;;;;;;15.23;3.78;;;4.70;99.90;;;3.25;100.00;98849.69;4996466;28;20133;-69
2022/12/27 10:36:28;;;;;;;14.55;3.55;;;4.70;99.90;;;3.50;100.00;98837.88;4997294;28;20064;-69
2022/12/27 10:38:56;;;;;;;14.80;3.65;;;4.80;99.90;;;3.58;100.00;98832.78;5009123;28;20512;-69
2022/12/27 10:41:53;;;;;;;10.30;2.33;;;4.90;99.90;;;3.38;100.00;98840.38;4999034;28;20461;-68
2022/12/27 10:44:22;;;;;;;16.67;6.30;;;5.00;99.90;;;3.70;100.00;98832.84;5015889;28;20057;-69
2022/12/27 10:46:52;;;;;;;11.90;2.63;;;5.20;99.90;;;3.65;100.00;98831.09;5001959;28;20142;-69
2022/12/27 10:49:26;;;;;;;9.05;2.58;;;5.20;99.90;;;3.90;100.00;98830.38;4995920;28;20064;-69
2022/12/27 10:51:57;;;;;;;9.25;2.33;;;5.20;99.90;;;3.90;100.00;98825.25;4997525;28;20060;-69
2022/12/27 10:54:28;;;;;;;12.85;2.42;;;5.30;99.90;;;4.28;100.00;98827.06;4995476;28;20057;-69
2022/12/27 10:57:34;;;;;;;11.90;3.38;;;5.30;99.90;;;3.97;100.00;98816.69;5004506;28;20055;-69
2022/12/27 11:00:18;;;;;;;13.48;3.13;;;5.40;99.90;;;4.13;100.00;98806.47;4998094;28;20080;-69
2022/12/27 11:02:49;;;;;;;10.32;2.92;;;5.40;99.90;;;4.28;100.00;98806.50;4997299;28;20072;-69
2022/12/27 11:05:27;;;;;;;9.25;2.05;;;5.40;99.90;;;4.22;100.00;98814.22;4999955;28;20052;-69
2022/12/27 11:07:55;;;;;;;11.23;2.40;;;5.50;99.90;;;4.24;100.00;98809.06;4986625;28;20065;-69
2022/12/27 11:10:26;;;;;;;6.75;2.10;;;5.40;99.90;;;4.05;100.00;98810.72;5001339;28;20557;-69
2022/12/27 11:13:05;;;;;;;12.68;2.28;;;5.40;99.90;;;4.06;100.00;98789.31;4993278;28;20177;-69
2022/12/27 11:15:37;;;;;;;13.45;2.78;;;5.40;99.90;;;3.91;100.00;98795.28;4999536;28;20073;-69
2022/12/27 11:18:16;;;;;;;10.82;1.98;;;5.40;99.90;;;4.14;100.00;98792.75;5001648;28;20189;-68
2022/12/27 11:20:54;;;;;;;6.55;2.65;;;5.40;99.90;;;4.00;100.00;98795.28;5002743;28;20049;-68
2022/12/27 11:23:24;;;;;;;7.47;2.40;;;5.40;99.90;;;4.00;100.00;98797.88;5014867;28;20499;-68
2022/12/27 11:25:58;;;;;;;17.83;3.08;;;5.40;99.90;;;4.12;100.00;98795.31;4995941;28;20596;-69
2022/12/27 11:28:41;;;;;;;14.00;3.22;;;5.40;99.90;;;3.96;100.00;98786.72;4995602;28;20437;-69
2022/12/27 11:31:12;;;;;;;10.35;3.28;;;5.40;99.90;;;3.78;100.00;98789.22;4996155;28;20046;-69
2022/12/27 11:33:49;;;;;;;12.82;3.58;;;5.30;99.90;;;3.93;100.00;98793.56;4996263;28;20054;-68
2022/12/27 11:36:36;;;;;;;11.98;2.50;;;5.20;99.90;;;3.86;100.00;98796.97;4999746;28;20055;-69
2022/12/27 11:39:04;;;;;;;10.60;2.20;;;5.10;99.90;;;3.60;100.00;98799.41;4998593;28;20050;-68
2022/12/27 11:41:47;;;;;;;9.77;2.10;;;5.10;99.90;;;3.69;100.00;98810.56;4995386;28;20050;-68
2022/12/27 11:44:28;;;;;;;8.98;1.88;;;5.00;99.90;;;3.80;100.00;98809.78;4995000;28;20053;-69
2022/12/27 11:47:05;;;;;;;10.30;2.10;;;5.00;99.90;;;3.68;100.00;98811.44;5000478;28;20054;-69
2022/12/27 11:49:40;;;;;;;8.65;1.77;;;4.90;99.90;;;3.74;100.00;98811.47;4998479;28;20168;-69
2022/12/27 11:52:32;;;;;;;20.58;2.45;;;4.90;99.90;;;3.62;100.00;98819.09;4994256;28;20065;-69
2022/12/27 11:55:38;;;;;;;11.52;2.33;;;4.90;99.90;;;3.56;100.00;98814.81;4998757;28;20053;-69
2022/12/27 11:58:31;;;;;;;14.32;2.95;;;4.90;99.90;;;3.61;100.00;98819.97;4997936;28;20046;-69
2022/12/27 12:01:20;;;;;;;13.77;3.38;;;4.90;99.90;;;3.62;100.00;98821.66;5000425;28;20101;-69
2022/12/27 12:04:14;;;;;;;14.93;3.83;;;4.90;99.90;;;3.62;100.00;98813.13;4993448;28;20057;-69
2022/12/27 12:11:33;;;;;;;;;;;5.10;99.90;;;3.56;100.00;98803.69;4990401;28;20056;-68
2022/12/27 12:14:23;;;;;;;13.45;2.92;;;5.10;99.90;;;3.54;100.00;98802.81;4970896;28;19936;-68
2022/12/27 12:17:11;;;;;;;14.68;3.97;;;5.10;99.90;;;3.64;100.00;98799.44;4994273;28;20058;-68
2022/12/27 12:20:28;;;;;;;9.38;2.95;;;5.10;99.90;;;3.73;100.00;98799.47;4995798;28;20424;-69
2022/12/27 12:23:10;;;;;;;12.50;3.67;;;5.20;99.90;;;3.58;100.00;98794.28;4994356;28;20056;-68
2022/12/27 12:26:10;;;;;;;16.15;3.40;;;5.20;99.90;;;3.70;100.00;98796.03;4997046;28;20437;-68
2022/12/27 12:29:10;;;;;;;15.07;3.72;;;5.30;99.90;;;3.82;100.00;98797.81;4993540;28;20133;-69
2022/12/27 12:32:01;;;;;;;16.08;2.85;;;5.20;99.90;;;3.88;100.00;98785.84;4989913;28;20041;-69
2022/12/27 12:34:40;;;;;;;13.00;3.38;;;5.20;99.90;;;3.73;100.00;98794.31;4997204;28;20137;-69
2022/12/27 12:37:43;;;;;;;11.20;2.58;;;5.30;99.90;;;4.13;100.00;98786.78;4999246;28;20538;-68
2022/12/27 12:40:55;;;;;;;15.60;3.07;;;5.40;99.90;;;3.84;100.00;98790.97;4998897;28;20523;-68
2022/12/27 12:43:57;;;;;;;14.30;2.97;;;5.60;99.90;;;3.98;100.00;98787.56;4993040;28;20054;-69
2022/12/27 12:46:44;;;;;;;10.50;2.00;;;;;;;4.12;100.00;98789.34;4999997;28;20053;-69
2022/12/27 12:49:33;;;;;;;7.18;2.33;;;5.70;99.90;;;4.38;100.00;98795.41;5000345;28;20180;-69
2022/12/27 12:52:33;;;;;;;12.00;2.60;;;5.70;99.90;;;4.39;100.00;98794.53;5001250;28;20153;-68